createdAt,value
2022-10-19T00:00:13.236Z,99103.80
2022-10-19T00:03:23.333Z,99106.00
2022-10-19T00:06:34.547Z,99103.40
2022-10-19T00:09:44.224Z,99101.00
2022-10-19T00:12:52.800Z,99095.20
2022-10-19T00:16:01.383Z,99094.60
2022-10-19T00:19:14.614Z,99090.60
2022-10-19T00:22:22.951Z,99090.20
2022-10-19T00:25:31.249Z,99084.40
2022-10-19T00:28:39.447Z,99086.80
2022-10-19T00:31:47.375Z,99069.00
2022-10-19T00:34:55.374Z,99073.20
2022-10-19T00:38:03.225Z,99064.20
2022-10-19T00:45:02.721Z,99066.20
2022-10-19T00:48:12.304Z,99066.40
2022-10-19T00:51:20.776Z,99069.60
2022-10-19T00:54:30.848Z,99063.20
2022-10-19T00:57:38.913Z,99066.60
2022-10-19T01:00:47.290Z,99057.80
2022-10-19T01:03:55.798Z,99047.80
2022-10-19T01:07:05.826Z,99037.00
2022-10-19T01:10:15.744Z,99031.00
2022-10-19T01:13:34.472Z,99014.20
2022-10-19T01:16:59.952Z,99025.20
2022-10-19T01:20:49.660Z,99024.40
2022-10-19T01:24:47.272Z,99016.40
2022-10-19T01:31:31.996Z,99009.40
2022-10-19T01:34:47.996Z,99014.20
2022-10-19T01:41:29.282Z,99024.60
2022-10-19T01:44:48.760Z,99024.60
2022-10-19T01:48:03.040Z,99015.80
2022-10-19T01:51:19.053Z,99016.80
2022-10-19T01:54:30.963Z,99018.20
2022-10-19T01:57:47.542Z,99023.80
2022-10-19T02:01:00.331Z,99025.80
2022-10-19T02:04:10.343Z,99022.20
2022-10-19T02:07:22.150Z,99031.00
2022-10-19T02:10:32.898Z,99023.20
2022-10-19T02:13:44.018Z,99022.20
2022-10-19T02:16:59.276Z,99024.40
2022-10-19T02:20:09.416Z,99013.00
2022-10-19T02:23:22.442Z,99017.40
2022-10-19T02:26:30.644Z,99028.20
2022-10-19T02:29:41.013Z,99016.60
2022-10-19T02:32:49.211Z,99013.60
2022-10-19T02:35:58.472Z,99012.40
2022-10-19T02:39:07.691Z,99017.80
2022-10-19T02:42:21.749Z,99017.00
2022-10-19T02:45:36.409Z,99016.20
2022-10-19T02:48:45.920Z,99013.80
2022-10-19T02:52:07.088Z,99014.80
2022-10-19T02:55:15.726Z,99021.40
2022-10-19T02:58:23.936Z,99028.40
2022-10-19T03:01:33.032Z,99020.20
2022-10-19T03:04:42.930Z,99012.80
2022-10-19T03:07:49.661Z,99011.00
2022-10-19T03:11:01.560Z,99014.00
2022-10-19T03:14:09.996Z,99021.40
2022-10-19T03:17:18.522Z,99021.80
2022-10-19T03:20:26.962Z,99027.20
2022-10-19T03:23:36.502Z,99025.60
2022-10-19T03:26:45.205Z,99021.80
2022-10-19T03:29:53.297Z,99027.60
2022-10-19T03:33:01.612Z,99030.80
2022-10-19T03:36:24.463Z,99030.60
2022-10-19T03:39:33.114Z,99030.60
2022-10-19T03:42:41.632Z,99026.20
2022-10-19T03:45:52.581Z,99023.40
2022-10-19T03:49:00.791Z,99030.80
2022-10-19T03:52:10.326Z,99035.40
2022-10-19T03:55:19.299Z,99036.60
2022-10-19T03:58:27.397Z,99035.60
2022-10-19T04:01:39.180Z,99048.00
2022-10-19T04:04:47.450Z,99050.00
2022-10-19T04:07:56.844Z,99053.80
2022-10-19T04:11:07.319Z,99043.00
2022-10-19T04:14:26.899Z,99055.20
2022-10-19T04:17:43.134Z,99050.80
2022-10-19T04:20:59.291Z,99051.00
2022-10-19T04:24:11.784Z,99053.80
2022-10-19T04:27:20.104Z,99043.60
2022-10-19T04:30:28.534Z,99053.60
2022-10-19T04:33:36.909Z,99058.60
2022-10-19T04:36:44.878Z,99054.80
2022-10-19T04:39:53.374Z,99042.00
2022-10-19T04:43:02.442Z,99040.20
2022-10-19T04:46:14.519Z,99053.40
2022-10-19T04:49:22.503Z,99053.60
2022-10-19T04:52:31.443Z,99052.00
2022-10-19T04:55:43.768Z,99054.20
2022-10-19T04:58:55.944Z,99058.40
2022-10-19T05:02:03.825Z,99058.60
2022-10-19T05:05:13.604Z,99056.00
2022-10-19T05:08:21.403Z,99053.60
2022-10-19T05:11:30.459Z,99050.40
2022-10-19T05:14:42.654Z,99057.60
2022-10-19T05:17:51.773Z,99052.80
2022-10-19T05:21:10.673Z,99057.60
2022-10-19T05:24:18.760Z,99069.60
2022-10-19T05:27:26.642Z,99067.20
2022-10-19T05:30:34.780Z,99072.80
2022-10-19T05:33:43.947Z,99077.40
2022-10-19T05:36:52.163Z,99078.80
2022-10-19T05:40:00.331Z,99073.40
2022-10-19T05:43:08.566Z,99078.20
2022-10-19T05:46:18.916Z,99076.80
2022-10-19T05:49:27.441Z,99076.00
2022-10-19T05:52:35.523Z,99079.80
2022-10-19T05:55:45.305Z,99077.00
2022-10-19T05:58:53.700Z,99086.60
2022-10-19T06:02:02.404Z,99091.00
2022-10-19T06:05:11.901Z,99099.40
2022-10-19T06:08:21.119Z,99101.40
2022-10-19T06:11:32.111Z,99110.00
2022-10-19T06:14:40.222Z,99111.00
2022-10-19T06:17:48.182Z,99111.60
2022-10-19T06:20:57.669Z,99112.40
2022-10-19T06:24:08.512Z,99108.20
2022-10-19T06:27:17.071Z,99112.00
2022-10-19T06:30:24.966Z,99116.20
2022-10-19T06:33:33.552Z,99117.60
2022-10-19T06:36:41.361Z,99123.80
2022-10-19T06:39:49.785Z,99126.20
2022-10-19T06:42:59.308Z,99132.40
2022-10-19T06:46:12.704Z,99145.00
2022-10-19T06:49:20.644Z,99145.80
2022-10-19T06:52:28.701Z,99147.00
2022-10-19T06:55:37.579Z,99150.80
2022-10-19T06:58:46.316Z,99149.60
2022-10-19T07:01:56.282Z,99151.80
2022-10-19T07:05:07.289Z,99144.20
2022-10-19T07:08:24.173Z,99152.60
2022-10-19T07:11:36.665Z,99156.00
2022-10-19T07:14:48.942Z,99163.00
2022-10-19T07:18:02.511Z,99166.00
2022-10-19T07:21:19.864Z,99163.80
2022-10-19T07:24:35.101Z,99172.80
2022-10-19T07:27:52.669Z,99175.60
2022-10-19T07:31:10.797Z,99181.80
2022-10-19T07:34:25.436Z,99172.00
2022-10-19T07:37:41.437Z,99175.20
2022-10-19T07:40:54.749Z,99167.20
2022-10-19T07:44:09.908Z,99170.40
2022-10-19T07:47:26.629Z,99167.40
2022-10-19T07:50:50.635Z,99168.00
2022-10-19T07:54:06.269Z,99166.20
2022-10-19T07:57:19.214Z,99166.60
2022-10-19T08:00:32.655Z,99155.60
2022-10-19T08:07:16.874Z,99150.20
2022-10-19T08:10:33.496Z,99153.60
2022-10-19T08:13:45.513Z,99159.60
2022-10-19T08:17:00.658Z,99159.80
2022-10-19T08:20:15.461Z,99151.00
2022-10-19T08:23:28.250Z,99150.60
2022-10-19T08:26:41.637Z,99152.60
2022-10-19T08:29:56.875Z,99151.20
2022-10-19T08:33:13.395Z,99155.80
2022-10-19T08:36:35.505Z,99147.60
2022-10-19T08:39:48.616Z,99141.40
2022-10-19T08:43:15.587Z,99151.40
2022-10-19T08:46:37.518Z,99152.60
2022-10-19T08:49:52.260Z,99153.60
2022-10-19T08:53:10.577Z,99159.20
2022-10-19T08:56:51.798Z,99154.40
2022-10-19T09:00:14.695Z,99155.00
2022-10-19T09:03:56.520Z,99158.40
2022-10-19T09:07:28.039Z,99158.80
2022-10-19T09:10:44.470Z,99151.80
2022-10-19T09:14:06.789Z,99149.40
2022-10-19T09:17:26.686Z,99157.60
2022-10-19T09:20:44.911Z,99161.80
2022-10-19T09:24:09.956Z,99156.60
2022-10-19T09:27:32.586Z,99163.40
2022-10-19T09:30:48.335Z,99156.40
2022-10-19T09:34:06.634Z,99165.20
2022-10-19T09:37:25.927Z,99165.00
2022-10-19T09:40:42.953Z,99161.60
2022-10-19T09:43:59.608Z,99164.00
2022-10-19T09:47:19.008Z,99165.40
2022-10-19T09:50:33.888Z,99157.40
2022-10-19T09:53:53.064Z,99155.00
2022-10-19T09:57:09.971Z,99153.40
2022-10-19T10:00:34.141Z,99151.60
2022-10-19T10:03:56.050Z,99149.20
2022-10-19T10:07:10.140Z,99144.20
2022-10-19T10:10:38.914Z,99143.60
2022-10-19T10:13:58.090Z,99134.00
2022-10-19T10:17:19.805Z,99130.60
2022-10-19T10:20:36.955Z,99134.80
2022-10-19T10:24:01.256Z,99130.00
2022-10-19T10:27:33.291Z,99130.40
2022-10-19T10:30:47.617Z,99126.20
2022-10-19T10:34:22.509Z,99126.00
2022-10-19T10:37:44.942Z,99127.40
2022-10-19T10:41:03.828Z,99130.80
2022-10-19T10:44:31.951Z,99117.20
2022-10-19T10:47:49.732Z,99122.80
2022-10-19T10:51:05.923Z,99115.60
2022-10-19T10:54:33.503Z,99106.40
2022-10-19T10:57:51.898Z,99108.00
2022-10-19T11:01:07.886Z,99100.80
2022-10-19T11:04:30.699Z,99098.20
2022-10-19T11:07:50.888Z,99097.20
2022-10-19T11:11:16.006Z,99090.80
2022-10-19T11:14:53.199Z,99091.00
2022-10-19T11:18:22.591Z,99093.00
2022-10-19T11:21:46.257Z,99097.00
2022-10-19T11:25:30.538Z,99097.20
2022-10-19T11:29:04.336Z,99088.40
2022-10-19T11:32:32.078Z,99082.80
2022-10-19T11:36:02.139Z,99080.80
2022-10-19T11:39:40.619Z,99084.80
2022-10-19T11:43:21.366Z,99078.20
2022-10-19T11:46:50.756Z,99071.40
2022-10-19T11:50:15.183Z,99071.40
2022-10-19T11:53:45.532Z,99068.00
2022-10-19T11:57:05.587Z,99066.60
2022-10-19T12:00:41.107Z,99059.80
2022-10-19T12:04:17.126Z,99066.60
2022-10-19T12:07:49.438Z,99055.80
2022-10-19T12:11:14.104Z,99055.00
2022-10-19T12:14:31.016Z,99047.60
2022-10-19T12:17:48.205Z,99040.00
2022-10-19T12:21:10.449Z,99033.00
2022-10-19T12:24:26.275Z,99031.00
2022-10-19T12:27:41.750Z,99031.20
2022-10-19T12:30:52.493Z,99025.20
2022-10-19T12:34:12.613Z,99021.00
2022-10-19T12:37:32.752Z,99024.20
2022-10-19T12:40:47.675Z,99015.00
2022-10-19T12:44:15.465Z,99015.00
2022-10-19T12:47:26.255Z,99011.20
2022-10-19T12:51:03.983Z,99013.60
2022-10-19T12:54:16.917Z,99011.40
2022-10-19T12:57:32.593Z,99010.40
2022-10-19T13:00:42.645Z,99007.80
2022-10-19T13:03:55.159Z,99012.60
2022-10-19T13:07:09.345Z,99007.20
2022-10-19T13:10:27.264Z,98995.40
2022-10-19T13:14:04.604Z,99000.20
2022-10-19T13:17:20.449Z,99000.00
2022-10-19T13:20:59.758Z,99002.00
2022-10-19T13:24:33.405Z,99001.40
2022-10-19T13:27:42.324Z,99005.80
2022-10-19T13:31:27.136Z,99003.20
2022-10-19T13:34:35.155Z,99008.40
2022-10-19T13:37:44.270Z,99012.20
2022-10-19T13:41:08.318Z,99013.40
2022-10-19T13:44:27.947Z,99007.80
2022-10-19T13:47:44.704Z,99009.00
2022-10-19T13:51:06.439Z,99010.00
2022-10-19T13:54:35.712Z,99012.00
2022-10-19T13:57:58.039Z,99006.00
2022-10-19T14:01:28.621Z,99002.80
2022-10-19T14:04:50.663Z,99002.80
2022-10-19T14:08:14.274Z,98996.40
2022-10-19T14:11:27.580Z,98993.60
2022-10-19T14:14:43.721Z,99000.20
2022-10-19T14:17:51.902Z,98999.80
2022-10-19T14:21:06.677Z,99007.40
2022-10-19T14:24:16.594Z,98995.60
2022-10-19T14:27:27.701Z,98997.60
2022-10-19T14:30:38.371Z,98999.00
2022-10-19T14:33:54.438Z,99001.40
2022-10-19T14:37:02.272Z,98999.40
2022-10-19T14:40:29.621Z,98992.40
2022-10-19T14:43:38.974Z,99000.00
2022-10-19T14:46:52.321Z,98997.60
2022-10-19T14:50:01.130Z,98993.40
2022-10-19T14:53:18.497Z,99000.00
2022-10-19T14:56:34.649Z,98999.80
2022-10-19T14:59:50.564Z,98997.80
2022-10-19T15:03:05.698Z,98994.20
2022-10-19T15:06:24.084Z,98989.20
2022-10-19T15:09:47.894Z,98991.60
2022-10-19T15:13:08.252Z,98985.20
2022-10-19T15:16:36.124Z,98993.40
2022-10-19T15:19:47.653Z,98995.20
2022-10-19T15:22:56.382Z,99000.80
2022-10-19T15:26:17.549Z,99006.80
2022-10-19T15:29:31.581Z,99005.40
2022-10-19T15:32:40.867Z,99017.20
2022-10-19T15:35:49.711Z,99013.60
2022-10-19T15:39:25.176Z,99009.20
2022-10-19T15:45:47.473Z,98977.60
2022-10-19T15:48:57.819Z,98980.60
2022-10-19T15:52:17.875Z,98994.40
2022-10-19T15:55:25.877Z,99013.80
2022-10-19T15:58:33.941Z,99022.00
2022-10-19T16:01:42.987Z,99018.20
2022-10-19T16:04:51.075Z,99018.40
2022-10-19T16:07:59.203Z,99007.20
2022-10-19T16:11:07.142Z,99008.00
2022-10-19T16:17:28.425Z,99011.20
2022-10-19T16:20:36.426Z,99015.20
2022-10-19T16:23:44.656Z,99029.80
2022-10-19T16:26:52.748Z,99041.60
2022-10-19T16:30:00.678Z,99054.40
2022-10-19T16:33:08.805Z,99053.40
2022-10-19T16:36:19.179Z,99056.80
2022-10-19T16:39:27.213Z,99064.40
2022-10-19T16:42:36.052Z,99063.80
2022-10-19T16:45:48.299Z,99066.40
2022-10-19T16:48:57.071Z,99065.80
2022-10-19T16:52:06.232Z,99060.60
2022-10-19T16:55:14.859Z,99055.40
2022-10-19T16:58:23.031Z,99060.80
2022-10-19T17:01:32.919Z,99063.80
2022-10-19T17:04:41.534Z,99076.60
2022-10-19T17:07:49.480Z,99098.20
2022-10-19T17:10:58.187Z,99104.00
2022-10-19T17:14:09.222Z,99113.00
2022-10-19T17:17:17.325Z,99111.80
2022-10-19T17:20:25.164Z,99103.80
2022-10-19T17:23:33.276Z,99098.60
2022-10-19T17:26:43.782Z,99094.40
2022-10-19T17:29:52.209Z,99097.00
2022-10-19T17:33:00.320Z,99109.80
2022-10-19T17:36:16.136Z,99106.60
2022-10-19T17:39:29.252Z,99109.20
2022-10-19T17:42:38.136Z,99099.00
2022-10-19T17:45:46.226Z,99110.80
2022-10-19T17:48:54.837Z,99109.00
2022-10-19T17:52:03.264Z,99115.20
2022-10-19T17:55:13.093Z,99115.80
2022-10-19T17:58:21.486Z,99116.80
2022-10-19T18:01:30.258Z,99112.20
2022-10-19T18:04:38.191Z,99117.00
2022-10-19T18:07:49.334Z,99121.00
2022-10-19T18:11:02.652Z,99110.00
2022-10-19T18:14:13.571Z,99093.00
2022-10-19T18:17:24.136Z,99099.20
2022-10-19T18:20:35.054Z,99110.60
2022-10-19T18:23:43.815Z,99116.60
2022-10-19T18:26:53.669Z,99116.40
2022-10-19T18:30:01.658Z,99123.40
2022-10-19T18:33:10.657Z,99120.60
2022-10-19T18:36:18.950Z,99126.00
2022-10-19T18:39:26.932Z,99135.20
2022-10-19T18:42:34.960Z,99142.00
2022-10-19T18:45:52.013Z,99142.00
2022-10-19T18:49:00.888Z,99145.60
2022-10-19T18:52:09.190Z,99156.80
2022-10-19T18:55:17.282Z,99163.20
2022-10-19T18:58:25.463Z,99180.60
2022-10-19T19:01:34.536Z,99183.20
2022-10-19T19:04:42.769Z,99173.00
2022-10-19T19:07:52.209Z,99180.00
2022-10-19T19:11:09.854Z,99185.20
2022-10-19T19:14:21.915Z,99192.60
2022-10-19T19:17:30.458Z,99192.40
2022-10-19T19:20:41.091Z,99185.40
2022-10-19T19:23:50.780Z,99189.80
2022-10-19T19:26:59.261Z,99192.00
2022-10-19T19:30:08.468Z,99198.00
2022-10-19T19:33:17.037Z,99195.00
2022-10-19T19:36:25.469Z,99195.60
2022-10-19T19:39:34.056Z,99198.20
2022-10-19T19:42:42.528Z,99204.80
2022-10-19T19:46:04.711Z,99207.00
2022-10-19T19:49:17.340Z,99204.00
2022-10-19T19:52:25.283Z,99214.60
2022-10-19T19:55:38.907Z,99213.00
2022-10-19T19:58:48.121Z,99207.00
2022-10-19T20:01:56.674Z,99201.80
2022-10-19T20:05:04.853Z,99207.80
2022-10-19T20:08:13.509Z,99217.80
2022-10-19T20:11:22.382Z,99229.80
2022-10-19T20:14:30.821Z,99228.20
2022-10-19T20:17:38.908Z,99234.40
2022-10-19T20:20:47.004Z,99242.20
2022-10-19T20:23:55.081Z,99248.60
2022-10-19T20:27:03.354Z,99250.00
2022-10-19T20:30:13.664Z,99254.00
2022-10-19T20:33:22.080Z,99252.60
2022-10-19T20:36:30.916Z,99252.80
2022-10-19T20:39:40.963Z,99258.00
2022-10-19T20:42:48.798Z,99267.40
2022-10-19T20:46:02.896Z,99274.80
2022-10-19T20:49:13.089Z,99269.80
2022-10-19T20:52:21.432Z,99264.00
2022-10-19T20:55:29.294Z,99266.60
2022-10-19T20:58:39.008Z,99258.40
2022-10-19T21:01:51.556Z,99257.80
2022-10-19T21:05:00.028Z,99266.00
2022-10-19T21:08:09.755Z,99272.80
2022-10-19T21:11:20.998Z,99281.00
2022-10-19T21:14:31.143Z,99283.60
2022-10-19T21:17:39.182Z,99296.00
2022-10-19T21:20:47.394Z,99293.00
2022-10-19T21:24:01.891Z,99295.40
2022-10-19T21:27:12.405Z,99297.00
2022-10-19T21:30:20.970Z,99294.60
2022-10-19T21:33:31.036Z,99291.80
2022-10-19T21:36:39.279Z,99299.00
2022-10-19T21:39:49.048Z,99292.80
2022-10-19T21:42:57.133Z,99287.20
2022-10-19T21:46:10.500Z,99290.60
2022-10-19T21:49:19.515Z,99292.40
2022-10-19T21:52:27.483Z,99289.20
2022-10-19T21:55:38.741Z,99297.80
2022-10-19T21:58:53.815Z,99295.60
2022-10-19T22:02:02.506Z,99297.00
2022-10-19T22:05:11.466Z,99301.60
2022-10-19T22:08:19.551Z,99294.20
2022-10-19T22:11:28.562Z,99292.60
2022-10-19T22:14:36.484Z,99290.00
2022-10-19T22:17:44.918Z,99292.20
2022-10-19T22:20:53.415Z,99281.00
2022-10-19T22:24:04.918Z,99285.60
2022-10-19T22:27:13.131Z,99282.40
2022-10-19T22:30:21.597Z,99281.40
2022-10-19T22:33:30.056Z,99281.80
2022-10-19T22:36:38.998Z,99276.20
2022-10-19T22:39:47.014Z,99277.00
2022-10-19T22:42:55.633Z,99276.20
2022-10-19T22:46:03.694Z,99287.00
2022-10-19T22:49:12.360Z,99288.60
2022-10-19T22:52:20.829Z,99281.60
2022-10-19T22:55:28.698Z,99281.60
2022-10-19T22:58:36.894Z,99278.20
2022-10-19T23:01:45.593Z,99281.00
2022-10-19T23:04:54.754Z,99283.80
2022-10-19T23:08:02.822Z,99291.60
2022-10-19T23:11:11.699Z,99291.40
2022-10-19T23:14:20.130Z,99288.60
2022-10-19T23:17:30.256Z,99290.00
2022-10-19T23:20:38.499Z,99299.40
2022-10-19T23:23:46.826Z,99306.40
2022-10-19T23:26:55.650Z,99304.80
2022-10-19T23:30:05.289Z,99302.60
2022-10-19T23:33:13.717Z,99303.00
2022-10-19T23:36:25.583Z,99311.60
2022-10-19T23:39:33.693Z,99305.60
2022-10-19T23:42:42.218Z,99306.40
2022-10-19T23:45:51.141Z,99310.80
2022-10-19T23:48:59.322Z,99314.40
2022-10-19T23:52:07.506Z,99310.20
2022-10-19T23:55:15.778Z,99304.80
2022-10-19T23:58:23.952Z,99306.80
